sensor_id;sensor_type;location;lat;lon;timestamp;P1;durP1;ratioP1;P2;durP2;ratioP2
27039;SDS011;14589;51.578;7.306;2023-08-06T00:02:23;5.18;;;3.85;;
27039;SDS011;14589;51.578;7.306;2023-08-06T00:04:54;6.20;;;3.30;;
27039;SDS011;14589;51.578;7.306;2023-08-06T00:07:24;3.63;;;1.95;;
27039;SDS011;14589;51.578;7.306;2023-08-06T00:09:55;8.40;;;4.05;;
27039;SDS011;14589;51.578;7.306;2023-08-06T00:12:25;5.93;;;4.00;;
27039;SDS011;14589;51.578;7.306;2023-08-06T00:14:56;4.95;;;3.25;;
27039;SDS011;14589;51.578;7.306;2023-08-06T00:17:29;5.82;;;3.38;;
27039;SDS011;14589;51.578;7.306;2023-08-06T00:19:59;6.80;;;4.38;;
27039;SDS011;14589;51.578;7.306;2023-08-06T00:22:37;8.60;;;3.75;;
27039;SDS011;14589;51.578;7.306;2023-08-06T00:25:08;8.63;;;4.50;;
27039;SDS011;14589;51.578;7.306;2023-08-06T00:27:39;6.82;;;3.53;;
27039;SDS011;14589;51.578;7.306;2023-08-06T00:30:09;7.95;;;5.18;;
27039;SDS011;14589;51.578;7.306;2023-08-06T00:32:40;8.00;;;4.47;;
27039;SDS011;14589;51.578;7.306;2023-08-06T00:35:10;5.35;;;3.08;;
27039;SDS011;14589;51.578;7.306;2023-08-06T00:37:41;11.82;;;5.78;;
27039;SDS011;14589;51.578;7.306;2023-08-06T00:40:11;5.18;;;3.28;;
27039;SDS011;14589;51.578;7.306;2023-08-06T00:42:41;6.15;;;2.72;;
27039;SDS011;14589;51.578;7.306;2023-08-06T00:45:14;6.47;;;4.65;;
27039;SDS011;14589;51.578;7.306;2023-08-06T00:47:45;6.57;;;4.72;;
27039;SDS011;14589;51.578;7.306;2023-08-06T00:50:16;5.30;;;4.53;;
27039;SDS011;14589;51.578;7.306;2023-08-06T00:52:48;5.57;;;4.53;;
27039;SDS011;14589;51.578;7.306;2023-08-06T00:55:19;4.47;;;3.13;;
27039;SDS011;14589;51.578;7.306;2023-08-06T00:57:49;4.65;;;3.05;;
27039;SDS011;14589;51.578;7.306;2023-08-06T01:00:22;5.28;;;3.75;;
27039;SDS011;14589;51.578;7.306;2023-08-06T01:02:54;5.93;;;4.35;;
27039;SDS011;14589;51.578;7.306;2023-08-06T01:05:24;3.17;;;1.60;;
27039;SDS011;14589;51.578;7.306;2023-08-06T01:08:01;6.25;;;4.20;;
27039;SDS011;14589;51.578;7.306;2023-08-06T01:14:02;4.05;;;2.13;;
27039;SDS011;14589;51.578;7.306;2023-08-06T01:16:38;2.78;;;2.25;;
27039;SDS011;14589;51.578;7.306;2023-08-06T01:19:16;4.50;;;2.95;;
27039;SDS011;14589;51.578;7.306;2023-08-06T01:21:51;6.13;;;3.08;;
27039;SDS011;14589;51.578;7.306;2023-08-06T01:24:21;4.70;;;3.22;;
27039;SDS011;14589;51.578;7.306;2023-08-06T01:26:59;4.35;;;3.58;;
27039;SDS011;14589;51.578;7.306;2023-08-06T01:29:39;5.22;;;2.85;;
27039;SDS011;14589;51.578;7.306;2023-08-06T01:32:34;4.28;;;2.47;;
27039;SDS011;14589;51.578;7.306;2023-08-06T01:35:09;9.35;;;3.03;;
27039;SDS011;14589;51.578;7.306;2023-08-06T01:37:41;3.13;;;1.85;;
27039;SDS011;14589;51.578;7.306;2023-08-06T01:40:13;5.22;;;3.33;;
27039;SDS011;14589;51.578;7.306;2023-08-06T01:42:43;3.65;;;3.28;;
27039;SDS011;14589;51.578;7.306;2023-08-06T01:45:14;5.78;;;4.18;;
27039;SDS011;14589;51.578;7.306;2023-08-06T01:47:44;5.88;;;4.03;;
27039;SDS011;14589;51.578;7.306;2023-08-06T01:50:15;5.10;;;3.95;;
27039;SDS011;14589;51.578;7.306;2023-08-06T01:52:45;4.63;;;3.60;;
27039;SDS011;14589;51.578;7.306;2023-08-06T01:55:15;7.22;;;2.10;;
27039;SDS011;14589;51.578;7.306;2023-08-06T01:57:46;4.15;;;2.38;;
27039;SDS011;14589;51.578;7.306;2023-08-06T02:00:17;3.20;;;2.10;;
27039;SDS011;14589;51.578;7.306;2023-08-06T02:02:47;3.10;;;2.10;;
27039;SDS011;14589;51.578;7.306;2023-08-06T02:05:17;3.72;;;2.15;;
27039;SDS011;14589;51.578;7.306;2023-08-06T02:07:48;4.75;;;1.33;;
27039;SDS011;14589;51.578;7.306;2023-08-06T02:10:18;5.25;;;1.92;;
27039;SDS011;14589;51.578;7.306;2023-08-06T02:12:48;4.38;;;2.20;;
27039;SDS011;14589;51.578;7.306;2023-08-06T02:15:19;3.80;;;2.75;;
27039;SDS011;14589;51.578;7.306;2023-08-06T02:17:49;3.95;;;3.03;;
27039;SDS011;14589;51.578;7.306;2023-08-06T02:20:20;3.25;;;2.22;;
27039;SDS011;14589;51.578;7.306;2023-08-06T02:22:51;4.15;;;2.47;;
27039;SDS011;14589;51.578;7.306;2023-08-06T02:25:21;3.67;;;2.05;;
27039;SDS011;14589;51.578;7.306;2023-08-06T02:27:52;3.45;;;2.67;;
27039;SDS011;14589;51.578;7.306;2023-08-06T02:30:22;3.92;;;1.70;;
27039;SDS011;14589;51.578;7.306;2023-08-06T02:32:53;5.03;;;2.08;;
27039;SDS011;14589;51.578;7.306;2023-08-06T02:35:24;2.35;;;1.83;;
27039;SDS011;14589;51.578;7.306;2023-08-06T02:37:55;2.80;;;2.30;;
27039;SDS011;14589;51.578;7.306;2023-08-06T02:40:26;4.75;;;2.00;;
27039;SDS011;14589;51.578;7.306;2023-08-06T02:42:56;5.10;;;2.38;;
27039;SDS011;14589;51.578;7.306;2023-08-06T02:45:28;4.07;;;1.95;;
27039;SDS011;14589;51.578;7.306;2023-08-06T02:47:59;4.85;;;1.75;;
27039;SDS011;14589;51.578;7.306;2023-08-06T02:50:29;3.13;;;1.73;;
27039;SDS011;14589;51.578;7.306;2023-08-06T02:53:00;2.83;;;1.42;;
27039;SDS011;14589;51.578;7.306;2023-08-06T02:55:32;3.85;;;2.30;;
27039;SDS011;14589;51.578;7.306;2023-08-06T02:58:04;2.83;;;2.47;;
27039;SDS011;14589;51.578;7.306;2023-08-06T03:00:39;4.10;;;1.42;;
27039;SDS011;14589;51.578;7.306;2023-08-06T03:03:11;3.15;;;2.15;;
27039;SDS011;14589;51.578;7.306;2023-08-06T03:05:52;2.33;;;1.55;;
27039;SDS011;14589;51.578;7.306;2023-08-06T03:08:30;2.78;;;1.88;;
27039;SDS011;14589;51.578;7.306;2023-08-06T03:11:03;3.45;;;1.48;;
27039;SDS011;14589;51.578;7.306;2023-08-06T03:13:34;4.00;;;2.92;;
27039;SDS011;14589;51.578;7.306;2023-08-06T03:16:05;2.83;;;1.92;;
27039;SDS011;14589;51.578;7.306;2023-08-06T03:18:35;2.80;;;1.48;;
27039;SDS011;14589;51.578;7.306;2023-08-06T03:21:08;3.10;;;2.05;;
27039;SDS011;14589;51.578;7.306;2023-08-06T03:23:39;4.85;;;2.42;;
27039;SDS011;14589;51.578;7.306;2023-08-06T03:26:10;3.42;;;1.70;;
27039;SDS011;14589;51.578;7.306;2023-08-06T03:28:41;4.07;;;2.05;;
27039;SDS011;14589;51.578;7.306;2023-08-06T03:31:12;2.75;;;1.65;;
27039;SDS011;14589;51.578;7.306;2023-08-06T03:33:46;2.33;;;1.50;;
27039;SDS011;14589;51.578;7.306;2023-08-06T03:36:20;4.43;;;2.63;;
27039;SDS011;14589;51.578;7.306;2023-08-06T03:38:51;2.40;;;1.63;;
27039;SDS011;14589;51.578;7.306;2023-08-06T03:41:21;3.50;;;2.30;;
27039;SDS011;14589;51.578;7.306;2023-08-06T03:43:52;3.00;;;1.92;;
27039;SDS011;14589;51.578;7.306;2023-08-06T03:46:28;2.90;;;1.88;;
27039;SDS011;14589;51.578;7.306;2023-08-06T03:48:58;3.22;;;1.58;;
27039;SDS011;14589;51.578;7.306;2023-08-06T03:51:29;2.85;;;1.83;;
27039;SDS011;14589;51.578;7.306;2023-08-06T03:54:00;3.38;;;1.50;;
27039;SDS011;14589;51.578;7.306;2023-08-06T03:56:31;3.15;;;1.77;;
27039;SDS011;14589;51.578;7.306;2023-08-06T03:59:01;3.40;;;2.38;;
27039;SDS011;14589;51.578;7.306;2023-08-06T04:01:32;3.47;;;1.67;;
27039;SDS011;14589;51.578;7.306;2023-08-06T04:04:02;2.88;;;0.98;;
27039;SDS011;14589;51.578;7.306;2023-08-06T04:06:33;2.97;;;2.00;;
27039;SDS011;14589;51.578;7.306;2023-08-06T04:09:03;2.35;;;1.23;;
27039;SDS011;14589;51.578;7.306;2023-08-06T04:11:35;3.47;;;1.65;;
27039;SDS011;14589;51.578;7.306;2023-08-06T04:14:06;2.50;;;2.05;;
27039;SDS011;14589;51.578;7.306;2023-08-06T04:16:37;2.50;;;1.38;;
27039;SDS011;14589;51.578;7.306;2023-08-06T04:19:07;2.80;;;1.40;;
27039;SDS011;14589;51.578;7.306;2023-08-06T04:21:38;3.05;;;1.77;;
27039;SDS011;14589;51.578;7.306;2023-08-06T04:24:08;3.35;;;1.63;;
27039;SDS011;14589;51.578;7.306;2023-08-06T04:26:38;2.88;;;1.48;;
27039;SDS011;14589;51.578;7.306;2023-08-06T04:29:09;2.00;;;1.10;;
27039;SDS011;14589;51.578;7.306;2023-08-06T04:31:39;2.38;;;1.55;;
27039;SDS011;14589;51.578;7.306;2023-08-06T04:34:10;2.85;;;1.42;;
27039;SDS011;14589;51.578;7.306;2023-08-06T04:36:42;3.17;;;2.20;;
27039;SDS011;14589;51.578;7.306;2023-08-06T04:39:13;3.03;;;1.55;;
27039;SDS011;14589;51.578;7.306;2023-08-06T04:41:44;3.13;;;1.88;;
27039;SDS011;14589;51.578;7.306;2023-08-06T04:44:14;2.83;;;1.13;;
27039;SDS011;14589;51.578;7.306;2023-08-06T04:46:45;3.20;;;1.55;;
27039;SDS011;14589;51.578;7.306;2023-08-06T04:49:15;5.63;;;2.60;;
27039;SDS011;14589;51.578;7.306;2023-08-06T04:51:45;4.55;;;2.35;;
27039;SDS011;14589;51.578;7.306;2023-08-06T04:54:16;5.78;;;3.75;;
27039;SDS011;14589;51.578;7.306;2023-08-06T04:56:46;5.03;;;2.33;;
27039;SDS011;14589;51.578;7.306;2023-08-06T04:59:17;3.50;;;2.08;;
27039;SDS011;14589;51.578;7.306;2023-08-06T05:01:47;4.35;;;2.58;;
27039;SDS011;14589;51.578;7.306;2023-08-06T05:04:17;5.38;;;1.98;;
27039;SDS011;14589;51.578;7.306;2023-08-06T05:06:48;2.67;;;1.77;;
27039;SDS011;14589;51.578;7.306;2023-08-06T05:09:18;4.28;;;2.78;;
27039;SDS011;14589;51.578;7.306;2023-08-06T05:11:50;2.63;;;1.77;;
27039;SDS011;14589;51.578;7.306;2023-08-06T05:14:20;2.45;;;1.60;;
27039;SDS011;14589;51.578;7.306;2023-08-06T05:16:50;3.17;;;1.67;;
27039;SDS011;14589;51.578;7.306;2023-08-06T05:19:21;2.25;;;1.48;;
27039;SDS011;14589;51.578;7.306;2023-08-06T05:21:51;4.35;;;1.98;;
27039;SDS011;14589;51.578;7.306;2023-08-06T05:24:21;3.47;;;1.63;;
27039;SDS011;14589;51.578;7.306;2023-08-06T05:26:52;3.05;;;1.13;;
27039;SDS011;14589;51.578;7.306;2023-08-06T05:29:22;3.38;;;2.00;;
27039;SDS011;14589;51.578;7.306;2023-08-06T05:31:52;2.60;;;1.63;;
27039;SDS011;14589;51.578;7.306;2023-08-06T05:34:23;7.32;;;2.85;;
27039;SDS011;14589;51.578;7.306;2023-08-06T05:36:53;3.45;;;2.17;;
27039;SDS011;14589;51.578;7.306;2023-08-06T05:39:23;4.10;;;2.50;;
27039;SDS011;14589;51.578;7.306;2023-08-06T05:41:54;4.32;;;2.00;;
27039;SDS011;14589;51.578;7.306;2023-08-06T05:44:25;4.60;;;3.03;;
27039;SDS011;14589;51.578;7.306;2023-08-06T05:46:55;5.25;;;3.65;;
27039;SDS011;14589;51.578;7.306;2023-08-06T05:49:26;5.55;;;1.92;;
27039;SDS011;14589;51.578;7.306;2023-08-06T05:51:56;5.10;;;2.58;;
27039;SDS011;14589;51.578;7.306;2023-08-06T05:54:26;4.95;;;2.35;;
27039;SDS011;14589;51.578;7.306;2023-08-06T05:56:57;5.60;;;3.20;;
27039;SDS011;14589;51.578;7.306;2023-08-06T05:59:27;8.13;;;3.47;;
27039;SDS011;14589;51.578;7.306;2023-08-06T06:01:57;3.35;;;2.03;;
27039;SDS011;14589;51.578;7.306;2023-08-06T06:04:28;3.30;;;2.58;;
27039;SDS011;14589;51.578;7.306;2023-08-06T06:06:58;6.28;;;3.10;;
27039;SDS011;14589;51.578;7.306;2023-08-06T06:09:29;3.90;;;2.38;;
27039;SDS011;14589;51.578;7.306;2023-08-06T06:11:59;5.10;;;2.95;;
27039;SDS011;14589;51.578;7.306;2023-08-06T06:14:29;4.95;;;2.58;;
27039;SDS011;14589;51.578;7.306;2023-08-06T06:17:00;4.15;;;2.70;;
27039;SDS011;14589;51.578;7.306;2023-08-06T06:19:30;5.15;;;3.03;;
27039;SDS011;14589;51.578;7.306;2023-08-06T06:22:01;7.78;;;3.15;;
27039;SDS011;14589;51.578;7.306;2023-08-06T06:24:31;5.20;;;3.20;;
27039;SDS011;14589;51.578;7.306;2023-08-06T06:27:02;4.50;;;3.25;;
27039;SDS011;14589;51.578;7.306;2023-08-06T06:29:32;5.10;;;3.08;;
27039;SDS011;14589;51.578;7.306;2023-08-06T06:32:03;6.28;;;2.92;;
27039;SDS011;14589;51.578;7.306;2023-08-06T06:34:33;3.50;;;2.40;;
27039;SDS011;14589;51.578;7.306;2023-08-06T06:37:04;5.80;;;2.45;;
27039;SDS011;14589;51.578;7.306;2023-08-06T06:39:34;3.83;;;3.08;;
27039;SDS011;14589;51.578;7.306;2023-08-06T06:42:05;3.03;;;1.77;;
27039;SDS011;14589;51.578;7.306;2023-08-06T06:44:41;2.97;;;1.48;;
27039;SDS011;14589;51.578;7.306;2023-08-06T06:47:12;3.00;;;1.88;;
27039;SDS011;14589;51.578;7.306;2023-08-06T06:49:42;2.75;;;1.00;;
27039;SDS011;14589;51.578;7.306;2023-08-06T06:52:12;2.25;;;1.30;;
27039;SDS011;14589;51.578;7.306;2023-08-06T06:54:43;4.43;;;1.05;;
27039;SDS011;14589;51.578;7.306;2023-08-06T06:57:13;4.13;;;1.38;;
27039;SDS011;14589;51.578;7.306;2023-08-06T06:59:43;1.45;;;0.65;;
27039;SDS011;14589;51.578;7.306;2023-08-06T07:02:14;1.85;;;0.88;;
27039;SDS011;14589;51.578;7.306;2023-08-06T07:04:44;3.97;;;1.02;;
27039;SDS011;14589;51.578;7.306;2023-08-06T07:07:15;2.28;;;0.60;;
27039;SDS011;14589;51.578;7.306;2023-08-06T07:09:45;2.05;;;0.68;;
27039;SDS011;14589;51.578;7.306;2023-08-06T07:12:15;2.28;;;1.05;;
27039;SDS011;14589;51.578;7.306;2023-08-06T07:14:46;3.13;;;1.40;;
27039;SDS011;14589;51.578;7.306;2023-08-06T07:17:16;2.20;;;1.40;;
27039;SDS011;14589;51.578;7.306;2023-08-06T07:19:46;1.65;;;0.85;;
27039;SDS011;14589;51.578;7.306;2023-08-06T07:22:17;2.25;;;0.70;;
27039;SDS011;14589;51.578;7.306;2023-08-06T07:24:47;1.85;;;0.88;;
27039;SDS011;14589;51.578;7.306;2023-08-06T07:27:17;2.95;;;1.05;;
27039;SDS011;14589;51.578;7.306;2023-08-06T07:29:48;2.65;;;0.88;;
27039;SDS011;14589;51.578;7.306;2023-08-06T07:32:18;3.63;;;0.70;;
27039;SDS011;14589;51.578;7.306;2023-08-06T07:34:48;9.65;;;1.45;;
27039;SDS011;14589;51.578;7.306;2023-08-06T07:37:19;1.95;;;0.77;;
27039;SDS011;14589;51.578;7.306;2023-08-06T07:39:49;2.95;;;0.68;;
27039;SDS011;14589;51.578;7.306;2023-08-06T07:42:20;2.58;;;0.57;;
27039;SDS011;14589;51.578;7.306;2023-08-06T07:44:54;4.57;;;1.42;;
27039;SDS011;14589;51.578;7.306;2023-08-06T07:47:26;4.28;;;1.40;;
27039;SDS011;14589;51.578;7.306;2023-08-06T07:49:56;5.18;;;2.13;;
27039;SDS011;14589;51.578;7.306;2023-08-06T07:52:26;3.85;;;1.50;;
27039;SDS011;14589;51.578;7.306;2023-08-06T07:54:57;2.05;;;1.38;;
27039;SDS011;14589;51.578;7.306;2023-08-06T07:57:28;3.28;;;1.42;;
27039;SDS011;14589;51.578;7.306;2023-08-06T07:59:59;2.63;;;1.35;;
27039;SDS011;14589;51.578;7.306;2023-08-06T08:02:29;2.72;;;1.42;;
27039;SDS011;14589;51.578;7.306;2023-08-06T08:05:00;2.70;;;1.65;;
27039;SDS011;14589;51.578;7.306;2023-08-06T08:07:30;2.65;;;2.05;;
27039;SDS011;14589;51.578;7.306;2023-08-06T08:10:01;3.70;;;1.50;;
27039;SDS011;14589;51.578;7.306;2023-08-06T08:12:31;1.95;;;0.90;;
27039;SDS011;14589;51.578;7.306;2023-08-06T08:15:02;3.95;;;1.35;;
27039;SDS011;14589;51.578;7.306;2023-08-06T08:17:33;3.85;;;1.98;;
27039;SDS011;14589;51.578;7.306;2023-08-06T08:20:04;3.58;;;1.80;;
27039;SDS011;14589;51.578;7.306;2023-08-06T08:22:35;3.92;;;1.45;;
27039;SDS011;14589;51.578;7.306;2023-08-06T08:25:06;3.53;;;1.02;;
27039;SDS011;14589;51.578;7.306;2023-08-06T08:27:36;2.15;;;1.15;;
27039;SDS011;14589;51.578;7.306;2023-08-06T08:30:07;3.28;;;1.95;;
27039;SDS011;14589;51.578;7.306;2023-08-06T08:32:37;2.55;;;1.00;;
27039;SDS011;14589;51.578;7.306;2023-08-06T08:35:08;4.78;;;1.23;;
27039;SDS011;14589;51.578;7.306;2023-08-06T08:37:38;2.03;;;1.33;;
27039;SDS011;14589;51.578;7.306;2023-08-06T08:40:09;4.07;;;1.48;;
27039;SDS011;14589;51.578;7.306;2023-08-06T08:42:40;3.90;;;1.25;;
27039;SDS011;14589;51.578;7.306;2023-08-06T08:45:13;4.38;;;1.15;;
27039;SDS011;14589;51.578;7.306;2023-08-06T08:47:44;3.35;;;1.48;;
27039;SDS011;14589;51.578;7.306;2023-08-06T08:50:17;1.35;;;0.52;;
27039;SDS011;14589;51.578;7.306;2023-08-06T08:55:20;4.63;;;1.50;;
27039;SDS011;14589;51.578;7.306;2023-08-06T08:57:52;2.60;;;1.05;;
27039;SDS011;14589;51.578;7.306;2023-08-06T09:00:22;4.45;;;2.13;;
27039;SDS011;14589;51.578;7.306;2023-08-06T09:02:52;2.88;;;1.30;;
27039;SDS011;14589;51.578;7.306;2023-08-06T09:05:24;3.25;;;1.27;;
27039;SDS011;14589;51.578;7.306;2023-08-06T09:08:04;3.83;;;1.55;;
27039;SDS011;14589;51.578;7.306;2023-08-06T09:10:35;3.65;;;2.15;;
27039;SDS011;14589;51.578;7.306;2023-08-06T09:13:07;3.53;;;1.77;;
27039;SDS011;14589;51.578;7.306;2023-08-06T09:15:38;3.78;;;1.83;;
27039;SDS011;14589;51.578;7.306;2023-08-06T09:18:09;2.60;;;1.33;;
27039;SDS011;14589;51.578;7.306;2023-08-06T09:20:41;4.13;;;1.42;;
27039;SDS011;14589;51.578;7.306;2023-08-06T09:23:11;3.17;;;1.38;;
27039;SDS011;14589;51.578;7.306;2023-08-06T09:25:42;2.28;;;1.25;;
27039;SDS011;14589;51.578;7.306;2023-08-06T09:28:12;4.20;;;1.42;;
27039;SDS011;14589;51.578;7.306;2023-08-06T09:30:42;2.60;;;0.80;;
27039;SDS011;14589;51.578;7.306;2023-08-06T09:33:17;2.47;;;1.23;;
27039;SDS011;14589;51.578;7.306;2023-08-06T09:35:48;4.07;;;3.67;;
27039;SDS011;14589;51.578;7.306;2023-08-06T09:38:18;1.90;;;0.65;;
27039;SDS011;14589;51.578;7.306;2023-08-06T09:40:49;3.20;;;1.08;;
27039;SDS011;14589;51.578;7.306;2023-08-06T09:43:19;2.05;;;0.98;;
27039;SDS011;14589;51.578;7.306;2023-08-06T09:45:50;2.58;;;0.93;;
27039;SDS011;14589;51.578;7.306;2023-08-06T09:48:20;2.50;;;2.05;;
27039;SDS011;14589;51.578;7.306;2023-08-06T09:50:54;2.58;;;0.95;;
27039;SDS011;14589;51.578;7.306;2023-08-06T09:53:25;2.10;;;1.15;;
27039;SDS011;14589;51.578;7.306;2023-08-06T09:55:57;3.15;;;0.73;;
27039;SDS011;14589;51.578;7.306;2023-08-06T09:58:29;2.67;;;1.02;;
27039;SDS011;14589;51.578;7.306;2023-08-06T10:01:02;2.20;;;1.95;;
27039;SDS011;14589;51.578;7.306;2023-08-06T10:03:32;1.60;;;1.35;;
27039;SDS011;14589;51.578;7.306;2023-08-06T10:06:04;2.95;;;1.38;;
27039;SDS011;14589;51.578;7.306;2023-08-06T10:08:37;3.17;;;1.52;;
27039;SDS011;14589;51.578;7.306;2023-08-06T10:11:10;1.60;;;1.45;;
27039;SDS011;14589;51.578;7.306;2023-08-06T10:13:43;3.53;;;2.10;;
27039;SDS011;14589;51.578;7.306;2023-08-06T10:16:14;2.30;;;1.52;;
27039;SDS011;14589;51.578;7.306;2023-08-06T10:18:45;3.33;;;1.77;;
27039;SDS011;14589;51.578;7.306;2023-08-06T10:21:17;2.58;;;1.63;;
27039;SDS011;14589;51.578;7.306;2023-08-06T10:23:53;4.45;;;1.80;;
27039;SDS011;14589;51.578;7.306;2023-08-06T10:26:27;3.80;;;1.98;;
27039;SDS011;14589;51.578;7.306;2023-08-06T10:28:58;3.13;;;1.92;;
27039;SDS011;14589;51.578;7.306;2023-08-06T10:34:52;2.72;;;1.58;;
27039;SDS011;14589;51.578;7.306;2023-08-06T10:37:37;3.63;;;1.77;;
27039;SDS011;14589;51.578;7.306;2023-08-06T10:40:08;3.47;;;0.95;;
27039;SDS011;14589;51.578;7.306;2023-08-06T10:42:38;3.05;;;2.20;;
27039;SDS011;14589;51.578;7.306;2023-08-06T10:45:19;3.45;;;2.03;;
27039;SDS011;14589;51.578;7.306;2023-08-06T10:47:50;4.75;;;2.33;;
27039;SDS011;14589;51.578;7.306;2023-08-06T10:50:20;2.00;;;1.15;;
27039;SDS011;14589;51.578;7.306;2023-08-06T10:52:51;4.93;;;1.15;;
27039;SDS011;14589;51.578;7.306;2023-08-06T10:55:25;3.08;;;1.23;;
27039;SDS011;14589;51.578;7.306;2023-08-06T10:57:57;2.85;;;1.20;;
27039;SDS011;14589;51.578;7.306;2023-08-06T11:00:27;2.53;;;1.40;;
27039;SDS011;14589;51.578;7.306;2023-08-06T11:02:58;1.88;;;0.98;;
27039;SDS011;14589;51.578;7.306;2023-08-06T11:05:28;2.60;;;1.65;;
27039;SDS011;14589;51.578;7.306;2023-08-06T11:07:59;2.35;;;1.83;;
27039;SDS011;14589;51.578;7.306;2023-08-06T11:10:29;2.63;;;1.52;;
27039;SDS011;14589;51.578;7.306;2023-08-06T11:13:03;2.55;;;0.98;;
27039;SDS011;14589;51.578;7.306;2023-08-06T11:15:33;2.00;;;0.80;;
27039;SDS011;14589;51.578;7.306;2023-08-06T11:18:04;1.80;;;0.85;;
27039;SDS011;14589;51.578;7.306;2023-08-06T11:20:36;1.55;;;0.98;;
27039;SDS011;14589;51.578;7.306;2023-08-06T11:23:09;3.83;;;1.92;;
27039;SDS011;14589;51.578;7.306;2023-08-06T11:25:46;3.03;;;1.67;;
27039;SDS011;14589;51.578;7.306;2023-08-06T11:28:16;2.75;;;1.08;;
27039;SDS011;14589;51.578;7.306;2023-08-06T11:30:51;1.55;;;1.00;;
27039;SDS011;14589;51.578;7.306;2023-08-06T11:33:26;2.00;;;1.42;;
27039;SDS011;14589;51.578;7.306;2023-08-06T11:35:57;4.05;;;1.38;;
27039;SDS011;14589;51.578;7.306;2023-08-06T11:38:29;2.33;;;1.02;;
27039;SDS011;14589;51.578;7.306;2023-08-06T11:41:00;3.95;;;1.88;;
27039;SDS011;14589;51.578;7.306;2023-08-06T11:43:30;2.92;;;1.70;;
27039;SDS011;14589;51.578;7.306;2023-08-06T11:46:01;1.20;;;0.90;;
27039;SDS011;14589;51.578;7.306;2023-08-06T11:48:31;1.92;;;1.13;;
27039;SDS011;14589;51.578;7.306;2023-08-06T11:51:02;1.63;;;0.85;;
27039;SDS011;14589;51.578;7.306;2023-08-06T11:53:32;2.30;;;1.05;;
27039;SDS011;14589;51.578;7.306;2023-08-06T11:56:03;4.63;;;2.35;;
27039;SDS011;14589;51.578;7.306;2023-08-06T11:58:33;2.75;;;1.50;;
27039;SDS011;14589;51.578;7.306;2023-08-06T12:01:04;1.83;;;1.52;;
27039;SDS011;14589;51.578;7.306;2023-08-06T12:03:41;4.03;;;1.45;;
27039;SDS011;14589;51.578;7.306;2023-08-06T12:06:11;2.08;;;1.27;;
27039;SDS011;14589;51.578;7.306;2023-08-06T12:08:42;3.45;;;1.63;;
27039;SDS011;14589;51.578;7.306;2023-08-06T12:11:12;4.10;;;1.70;;
27039;SDS011;14589;51.578;7.306;2023-08-06T12:13:42;1.67;;;1.00;;
27039;SDS011;14589;51.578;7.306;2023-08-06T12:16:13;4.30;;;1.55;;
27039;SDS011;14589;51.578;7.306;2023-08-06T12:18:44;2.92;;;2.55;;
27039;SDS011;14589;51.578;7.306;2023-08-06T12:21:15;3.45;;;2.30;;
27039;SDS011;14589;51.578;7.306;2023-08-06T12:23:45;3.67;;;2.60;;
27039;SDS011;14589;51.578;7.306;2023-08-06T12:26:15;3.63;;;3.03;;
27039;SDS011;14589;51.578;7.306;2023-08-06T12:28:46;3.97;;;3.17;;
27039;SDS011;14589;51.578;7.306;2023-08-06T12:31:16;4.13;;;3.15;;
27039;SDS011;14589;51.578;7.306;2023-08-06T12:33:46;5.32;;;2.72;;
27039;SDS011;14589;51.578;7.306;2023-08-06T12:36:17;5.18;;;3.55;;
27039;SDS011;14589;51.578;7.306;2023-08-06T12:38:47;6.72;;;2.88;;
27039;SDS011;14589;51.578;7.306;2023-08-06T12:41:18;4.22;;;3.33;;
27039;SDS011;14589;51.578;7.306;2023-08-06T12:43:48;3.42;;;2.33;;
27039;SDS011;14589;51.578;7.306;2023-08-06T12:46:18;1.70;;;1.08;;
27039;SDS011;14589;51.578;7.306;2023-08-06T12:48:49;1.83;;;1.00;;
27039;SDS011;14589;51.578;7.306;2023-08-06T12:51:19;2.15;;;1.25;;
27039;SDS011;14589;51.578;7.306;2023-08-06T12:53:49;2.10;;;1.15;;
27039;SDS011;14589;51.578;7.306;2023-08-06T12:56:20;3.10;;;0.85;;
27039;SDS011;14589;51.578;7.306;2023-08-06T12:58:50;1.13;;;0.60;;
27039;SDS011;14589;51.578;7.306;2023-08-06T13:01:21;0.65;;;0.20;;
27039;SDS011;14589;51.578;7.306;2023-08-06T13:03:51;3.38;;;0.45;;
27039;SDS011;14589;51.578;7.306;2023-08-06T13:06:21;0.93;;;0.38;;
27039;SDS011;14589;51.578;7.306;2023-08-06T13:08:52;0.82;;;0.52;;
27039;SDS011;14589;51.578;7.306;2023-08-06T13:11:22;1.20;;;0.82;;
27039;SDS011;14589;51.578;7.306;2023-08-06T13:13:53;1.92;;;1.35;;
27039;SDS011;14589;51.578;7.306;2023-08-06T13:16:23;1.27;;;0.82;;
27039;SDS011;14589;51.578;7.306;2023-08-06T13:18:54;0.52;;;0.35;;
27039;SDS011;14589;51.578;7.306;2023-08-06T13:21:30;0.52;;;0.00;;
27039;SDS011;14589;51.578;7.306;2023-08-06T13:24:02;0.90;;;0.15;;
27039;SDS011;14589;51.578;7.306;2023-08-06T13:26:33;1.13;;;0.10;;
27039;SDS011;14589;51.578;7.306;2023-08-06T13:29:03;1.83;;;0.35;;
27039;SDS011;14589;51.578;7.306;2023-08-06T13:31:34;1.35;;;0.82;;
27039;SDS011;14589;51.578;7.306;2023-08-06T13:34:04;0.60;;;0.35;;
27039;SDS011;14589;51.578;7.306;2023-08-06T13:36:35;1.55;;;0.57;;
27039;SDS011;14589;51.578;7.306;2023-08-06T13:39:05;1.52;;;0.50;;
27039;SDS011;14589;51.578;7.306;2023-08-06T13:41:35;0.85;;;0.32;;
27039;SDS011;14589;51.578;7.306;2023-08-06T13:44:07;3.47;;;0.43;;
27039;SDS011;14589;51.578;7.306;2023-08-06T13:46:37;0.28;;;0.10;;
27039;SDS011;14589;51.578;7.306;2023-08-06T13:49:07;1.90;;;0.98;;
27039;SDS011;14589;51.578;7.306;2023-08-06T13:51:38;0.80;;;0.30;;
27039;SDS011;14589;51.578;7.306;2023-08-06T13:54:08;0.75;;;0.10;;
27039;SDS011;14589;51.578;7.306;2023-08-06T13:56:39;1.33;;;0.10;;
27039;SDS011;14589;51.578;7.306;2023-08-06T13:59:09;2.00;;;0.20;;
27039;SDS011;14589;51.578;7.306;2023-08-06T14:01:43;1.52;;;0.30;;
27039;SDS011;14589;51.578;7.306;2023-08-06T14:04:13;1.02;;;0.38;;
27039;SDS011;14589;51.578;7.306;2023-08-06T14:06:44;0.80;;;0.20;;
27039;SDS011;14589;51.578;7.306;2023-08-06T14:09:14;0.90;;;0.50;;
27039;SDS011;14589;51.578;7.306;2023-08-06T14:11:48;0.60;;;0.40;;
27039;SDS011;14589;51.578;7.306;2023-08-06T14:14:18;2.10;;;0.73;;
27039;SDS011;14589;51.578;7.306;2023-08-06T14:16:50;2.13;;;0.75;;
27039;SDS011;14589;51.578;7.306;2023-08-06T14:19:21;1.45;;;0.65;;
27039;SDS011;14589;51.578;7.306;2023-08-06T14:21:51;5.68;;;3.17;;
27039;SDS011;14589;51.578;7.306;2023-08-06T14:24:22;6.30;;;2.35;;
27039;SDS011;14589;51.578;7.306;2023-08-06T14:26:52;5.75;;;2.72;;
27039;SDS011;14589;51.578;7.306;2023-08-06T14:29:23;2.42;;;0.93;;
27039;SDS011;14589;51.578;7.306;2023-08-06T14:31:53;1.95;;;0.57;;
27039;SDS011;14589;51.578;7.306;2023-08-06T14:34:24;2.00;;;0.70;;
27039;SDS011;14589;51.578;7.306;2023-08-06T14:36:54;1.90;;;0.75;;
27039;SDS011;14589;51.578;7.306;2023-08-06T14:39:24;1.88;;;0.65;;
27039;SDS011;14589;51.578;7.306;2023-08-06T14:41:55;3.03;;;1.50;;
27039;SDS011;14589;51.578;7.306;2023-08-06T14:44:25;4.63;;;1.25;;
27039;SDS011;14589;51.578;7.306;2023-08-06T14:46:55;4.03;;;1.48;;
27039;SDS011;14589;51.578;7.306;2023-08-06T14:49:26;2.53;;;1.02;;
27039;SDS011;14589;51.578;7.306;2023-08-06T14:51:56;4.75;;;1.73;;
27039;SDS011;14589;51.578;7.306;2023-08-06T14:54:30;1.77;;;0.55;;
27039;SDS011;14589;51.578;7.306;2023-08-06T14:57:00;2.58;;;0.45;;
27039;SDS011;14589;51.578;7.306;2023-08-06T14:59:31;0.77;;;0.20;;
27039;SDS011;14589;51.578;7.306;2023-08-06T15:02:02;1.73;;;0.50;;
27039;SDS011;14589;51.578;7.306;2023-08-06T15:04:33;0.82;;;0.22;;
27039;SDS011;14589;51.578;7.306;2023-08-06T15:07:04;0.77;;;0.38;;
27039;SDS011;14589;51.578;7.306;2023-08-06T15:09:34;1.48;;;0.32;;
27039;SDS011;14589;51.578;7.306;2023-08-06T15:12:05;2.22;;;0.50;;
27039;SDS011;14589;51.578;7.306;2023-08-06T15:14:36;1.15;;;0.20;;
27039;SDS011;14589;51.578;7.306;2023-08-06T15:17:06;1.00;;;0.22;;
27039;SDS011;14589;51.578;7.306;2023-08-06T15:19:36;2.33;;;0.40;;
27039;SDS011;14589;51.578;7.306;2023-08-06T15:22:07;1.08;;;0.40;;